Time;durP1;ratioP1;P1;durP2;ratioP2;P2;SDS_P1;SDS_P2;PMS_P1;PMS_P2;Temp;Humidity;BMP_temperature;BMP_pressure;BME280_temperature;BME280_humidity;BME280_pressure;Samples;Min_cycle;Max_cycle;Signal;HPM_P1;HPM_P2
2022/10/01 00:00:29;;;;;;;7.03;3.63;;;;;;;;;;6277162;22;20023;-76
2022/10/01 00:02:57;;;;;;;10.30;3.95;;;;;;;;;;6276018;22;20023;-77
2022/10/01 00:05:24;;;;;;;4.75;3.70;;;;;;;;;;6303729;22;20027;-76
2022/10/01 00:07:58;;;;;;;6.82;3.60;;;;;;;;;;6303819;22;20041;-76
2022/10/01 00:10:25;;;;;;;7.20;3.85;;;;;;;;;;6303179;22;20344;-77
2022/10/01 00:12:59;;;;;;;9.05;3.75;;;;;;;;;;6302840;22;20016;-77
2022/10/01 00:15:26;;;;;;;8.27;4.28;;;;;;;;;;6302992;22;20027;-77
2022/10/01 00:18:00;;;;;;;12.05;4.15;;;;;;;;;;6303475;22;20329;-77
2022/10/01 00:20:28;;;;;;;9.32;4.00;;;;;;;;;;6276011;22;20015;-77
2022/10/01 00:22:55;;;;;;;12.75;4.38;;;;;;;;;;6302879;22;20051;-76
2022/10/01 00:25:29;;;;;;;11.82;4.82;;;;;;;;;;6302828;22;20023;-77
2022/10/01 00:28:02;;;;;;;;;;;;;;;;;;6300011;22;20025;-76
2022/10/01 00:30:47;;;;;;;7.57;4.45;;;;;;;;;;6302700;22;19918;-76
2022/10/01 00:33:14;;;;;;;13.82;4.38;;;;;;;;;;6276995;22;20030;-76
2022/10/01 00:35:48;;;;;;;8.85;4.80;;;;;;;;;;6301872;22;20050;-76
2022/10/01 00:38:15;;;;;;;;;;;;;;;;;;6303726;22;20019;-77
2022/10/01 00:40:42;;;;;;;11.55;5.63;;;;;;;;;;6303977;22;19986;-77
2022/10/01 00:43:29;;;;;;;9.00;4.68;;;;;;;;;;6302725;22;20400;-77
2022/10/01 00:45:58;;;;;;;12.45;6.00;;;;;;;;;;6275180;22;20023;-77
2022/10/01 00:48:35;;;;;;;13.52;6.10;;;;;;;;;;6302866;22;20023;-76
2022/10/01 00:51:02;;;;;;;15.30;6.68;;;;;;;;;;6275137;22;20086;-77
2022/10/01 00:53:29;;;;;;;14.02;6.80;;;;;;;;;;6302045;22;20477;-76
2022/10/01 00:56:05;;;;;;;17.50;7.85;;;;;;;;;;6301998;22;20027;-76
2022/10/01 00:58:33;;;;;;;16.13;6.68;;;;;;;;;;6301749;22;20110;-76
2022/10/01 01:01:07;;;;;;;13.63;7.13;;;;;;;;;;6276488;22;20098;-76
2022/10/01 01:03:34;;;;;;;14.38;7.10;;;;;;;;;;6301817;22;20023;-76
2022/10/01 01:06:08;;;;;;;10.93;6.45;;;;;;;;;;6302215;22;20095;-76
2022/10/01 01:08:35;;;;;;;15.98;6.82;;;;;;;;;;6301662;22;20015;-76
2022/10/01 01:11:16;;;;;;;14.88;7.30;;;;;;;;;;6302450;22;20544;-77
2022/10/01 01:14:08;;;;;;;14.65;5.93;;;;;;;;;;6299897;22;20023;-77
2022/10/01 01:16:37;;;;;;;15.52;6.30;;;;;;;;;;6300762;22;20097;-76
2022/10/01 01:19:30;;;;;;;13.82;6.90;;;;;;;;;;6301963;22;20516;-77
2022/10/01 01:22:00;;;;;;;16.17;6.38;;;;;;;;;;6302414;22;20015;-76
2022/10/01 01:24:46;;;;;;;18.33;6.07;;;;;;;;;;6300960;22;20023;-77
2022/10/01 01:27:15;;;;;;;12.02;6.28;;;;;;;;;;6299401;22;20035;-77
2022/10/01 01:29:59;;;;;;;19.52;6.47;;;;;;;;;;6302163;22;20022;-77
2022/10/01 01:32:30;;;;;;;13.15;6.80;;;;;;;;;;6275244;22;20472;-77
2022/10/01 01:35:05;;;;;;;16.33;7.30;;;;;;;;;;6302177;22;20027;-76
2022/10/01 01:37:35;;;;;;;11.55;5.55;;;;;;;;;;6274955;22;20115;-76
2022/10/01 01:40:10;;;;;;;14.77;6.93;;;;;;;;;;6303045;22;20019;-77
2022/10/01 01:42:39;;;;;;;18.13;7.30;;;;;;;;;;6303268;22;20102;-77
2022/10/01 01:45:16;;;;;;;13.65;7.32;;;;;;;;;;6302761;22;20023;-77
2022/10/01 01:47:45;;;;;;;15.30;7.35;;;;;;;;;;6301018;22;20118;-77
2022/10/01 01:50:19;;;;;;;12.48;6.32;;;;;;;;;;6303084;22;20019;-76
2022/10/01 01:52:46;;;;;;;8.98;5.07;;;;;;;;;;6302462;22;20475;-76
2022/10/01 01:55:23;;;;;;;13.27;6.70;;;;;;;;;;6301938;22;20030;-77
2022/10/01 01:57:50;;;;;;;18.77;7.20;;;;;;;;;;6275739;22;20301;-76
2022/10/01 02:00:24;;;;;;;12.45;7.82;;;;;;;;;;6301654;22;20510;-77
2022/10/01 02:02:53;;;;;;;13.02;7.57;;;;;;;;;;6274437;22;20019;-77
2022/10/01 02:05:23;;;;;;;14.13;7.75;;;;;;;;;;6275170;22;20019;-76
2022/10/01 02:08:26;;;;;;;19.17;8.93;;;;;;;;;;6301828;22;20561;-77
2022/10/01 02:10:54;;;;;;;11.95;7.68;;;;;;;;;;6282874;22;20508;-77
2022/10/01 02:13:31;;;;;;;15.13;9.57;;;;;;;;;;6300951;22;20063;-77
2022/10/01 02:16:17;;;;;;;17.70;10.10;;;;;;;;;;6302165;22;20027;-77
2022/10/01 02:19:04;;;;;;;16.95;10.60;;;;;;;;;;6275594;22;20506;-77
2022/10/01 02:21:34;;;;;;;24.45;13.60;;;;;;;;;;6301635;22;20348;-77
2022/10/01 02:24:08;;;;;;;26.15;12.90;;;;;;;;;;6276338;22;20023;-78
2022/10/01 02:26:36;;;;;;;24.48;12.85;;;;;;;;;;6299501;22;20015;-76
2022/10/01 02:29:18;;;;;;;30.48;16.42;;;;;;;;;;6271554;22;20026;-77
2022/10/01 02:31:46;;;;;;;33.80;17.02;;;;;;;;;;6271887;22;20433;-77
2022/10/01 02:34:22;;;;;;;24.23;16.42;;;;;;;;;;6271152;22;20426;-77
2022/10/01 02:36:50;;;;;;;28.92;17.45;;;;;;;;;;6269454;22;20078;-77
2022/10/01 02:39:25;;;;;;;28.80;17.63;;;;;;;;;;6271711;22;20492;-76
2022/10/01 02:41:53;;;;;;;36.35;18.52;;;;;;;;;;6271524;22;20341;-76
2022/10/01 02:44:30;;;;;;;41.10;19.33;;;;;;;;;;6271365;22;20100;-76
2022/10/01 02:47:03;;;;;;;30.02;20.27;;;;;;;;;;6272483;22;20023;-75
2022/10/01 02:49:38;;;;;;;35.45;19.85;;;;;;;;;;6274109;22;20650;-77
2022/10/01 02:52:18;;;;;;;34.85;19.67;;;;;;;;;;6272101;22;20090;-77
2022/10/01 02:55:09;;;;;;;42.97;21.50;;;;;;;;;;6273546;22;20026;-77
2022/10/01 02:57:37;;;;;;;34.83;20.52;;;;;;;;;;6271811;22;20070;-78
2022/10/01 03:00:12;;;;;;;34.17;20.73;;;;;;;;;;6271156;22;20483;-78
2022/10/01 03:02:39;;;;;;;40.83;22.45;;;;;;;;;;6273755;22;20408;-77
2022/10/01 03:05:14;;;;;;;39.53;22.85;;;;;;;;;;6274085;22;20042;-77
2022/10/01 03:07:42;;;;;;;43.28;24.80;;;;;;;;;;6274059;22;20115;-77
2022/10/01 03:10:10;;;;;;;39.83;24.13;;;;;;;;;;6271098;22;20059;-77
2022/10/01 03:12:45;;;;;;;41.13;21.40;;;;;;;;;;6272362;22;20507;-77
2022/10/01 03:15:13;;;;;;;48.60;24.83;;;;;;;;;;6272560;22;20024;-77
2022/10/01 03:17:50;;;;;;;46.08;26.73;;;;;;;;;;6273226;22;20122;-76
2022/10/01 03:20:18;;;;;;;46.67;28.48;;;;;;;;;;6271330;22;20066;-77
2022/10/01 03:22:46;;;;;;;49.65;28.67;;;;;;;;;;6272606;22;20030;-76
2022/10/01 03:25:20;;;;;;;48.47;30.25;;;;;;;;;;6272674;22;20019;-77
2022/10/01 03:27:53;;;;;;;59.13;31.27;;;;;;;;;;6284911;22;20094;-77
2022/10/01 03:30:35;;;;;;;52.15;30.00;;;;;;;;;;6302930;22;20027;-77
2022/10/01 03:33:02;;;;;;;46.72;29.25;;;;;;;;;;6276522;22;20015;-77
2022/10/01 03:35:36;;;;;;;54.90;33.92;;;;;;;;;;6277345;22;20019;-81
2022/10/01 03:38:03;;;;;;;45.58;31.10;;;;;;;;;;6275730;22;20015;-77
2022/10/01 03:40:32;;;;;;;56.20;31.25;;;;;;;;;;6303548;22;20023;-78
2022/10/01 03:43:07;;;;;;;45.72;29.90;;;;;;;;;;6276289;22;20041;-77
2022/10/01 03:45:34;;;;;;;45.22;27.65;;;;;;;;;;6302493;22;20030;-76
2022/10/01 03:48:01;;;;;;;53.72;32.00;;;;;;;;;;6302891;22;20094;-77
2022/10/01 03:50:35;;;;;;;53.30;32.67;;;;;;;;;;6302624;22;20415;-77
2022/10/01 03:53:02;;;;;;;53.40;32.33;;;;;;;;;;6304144;22;20069;-77
2022/10/01 03:55:36;;;;;;;56.80;32.60;;;;;;;;;;6278441;22;20051;-77
2022/10/01 03:58:03;;;;;;;43.05;28.05;;;;;;;;;;6302994;22;20509;-76
2022/10/01 04:00:30;;;;;;;39.65;27.35;;;;;;;;;;6303172;22;20027;-76
2022/10/01 04:03:05;;;;;;;46.78;28.88;;;;;;;;;;6303223;22;20054;-76
2022/10/01 04:05:32;;;;;;;51.25;30.67;;;;;;;;;;6302869;22;20034;-77
2022/10/01 04:08:06;;;;;;;50.60;32.45;;;;;;;;;;6303884;22;20054;-77
2022/10/01 04:10:33;;;;;;;51.15;29.38;;;;;;;;;;6302033;22;20142;-77
2022/10/01 04:13:00;;;;;;;47.05;29.27;;;;;;;;;;6275432;22;20021;-77
2022/10/01 04:15:34;;;;;;;46.97;29.15;;;;;;;;;;6302841;22;20027;-77
2022/10/01 04:18:05;;;;;;;45.45;30.52;;;;;;;;;;6302629;22;20090;-76
2022/10/01 04:20:53;;;;;;;52.25;28.45;;;;;;;;;;6302312;22;20092;-76
2022/10/01 04:23:27;;;;;;;47.35;28.95;;;;;;;;;;6274078;22;20095;-78
2022/10/01 04:26:01;;;;;;;44.55;30.77;;;;;;;;;;6302168;22;20425;-77
2022/10/01 04:28:45;;;;;;;59.42;35.33;;;;;;;;;;6269750;22;20110;-76
2022/10/01 04:31:25;;;;;;;51.88;29.38;;;;;;;;;;6271755;22;20138;-76
2022/10/01 04:33:59;;;;;;;54.88;33.75;;;;;;;;;;6272702;22;20051;-77
2022/10/01 04:36:27;;;;;;;45.42;27.83;;;;;;;;;;6269814;22;20027;-77
2022/10/01 04:39:01;;;;;;;54.53;34.05;;;;;;;;;;6272072;22;20098;-77
2022/10/01 04:41:29;;;;;;;58.58;34.35;;;;;;;;;;6272178;22;20027;-76
2022/10/01 04:43:58;;;;;;;57.90;33.90;;;;;;;;;;6273294;22;20020;-76
2022/10/01 04:46:32;;;;;;;55.03;32.88;;;;;;;;;;6271768;22;20058;-77
2022/10/01 04:48:59;;;;;;;42.03;28.02;;;;;;;;;;6272300;22;20020;-76
2022/10/01 04:51:34;;;;;;;42.75;26.58;;;;;;;;;;6272083;22;20412;-77
2022/10/01 04:54:02;;;;;;;48.28;28.77;;;;;;;;;;6271100;22;20028;-77
2022/10/01 04:56:29;;;;;;;44.75;30.77;;;;;;;;;;6270496;22;20338;-76
2022/10/01 04:59:03;;;;;;;45.53;28.77;;;;;;;;;;6270461;22;20015;-77
2022/10/01 05:01:31;;;;;;;42.45;27.85;;;;;;;;;;6269861;22;20102;-77
2022/10/01 05:04:05;;;;;;;48.03;30.15;;;;;;;;;;6269873;22;20065;-76
2022/10/01 05:06:32;;;;;;;39.22;28.05;;;;;;;;;;6269800;22;20325;-77
2022/10/01 05:09:00;;;;;;;44.00;28.88;;;;;;;;;;6272044;22;20095;-74
2022/10/01 05:11:34;;;;;;;41.88;27.48;;;;;;;;;;6271185;22;20313;-74
2022/10/01 05:14:02;;;;;;;44.65;27.10;;;;;;;;;;6270378;22;20020;-74
2022/10/01 05:16:29;;;;;;;40.70;26.25;;;;;;;;;;6270626;22;20349;-74
2022/10/01 05:19:03;;;;;;;45.20;28.50;;;;;;;;;;6271195;22;20054;-74
2022/10/01 05:21:30;;;;;;;46.22;27.52;;;;;;;;;;6270530;22;20023;-75
2022/10/01 05:24:04;;;;;;;43.28;28.77;;;;;;;;;;6270939;22;20054;-74
2022/10/01 05:26:31;;;;;;;38.10;26.10;;;;;;;;;;6270614;22;20412;-74
2022/10/01 05:28:59;;;;;;;41.20;26.67;;;;;;;;;;6297077;22;20027;-76
2022/10/01 05:31:33;;;;;;;48.47;29.15;;;;;;;;;;6277057;22;20312;-76
2022/10/01 05:34:01;;;;;;;42.10;26.77;;;;;;;;;;6301883;22;20024;-76
2022/10/01 05:36:28;;;;;;;41.13;25.60;;;;;;;;;;6300975;22;20486;-76
2022/10/01 05:39:02;;;;;;;33.45;23.25;;;;;;;;;;6302512;22;20102;-76
2022/10/01 05:41:29;;;;;;;;;;;;;;;;;;6302752;22;20137;-76
2022/10/01 05:44:04;;;;;;;31.85;22.73;;;;;;;;;;6302253;22;19926;-76
2022/10/01 05:46:32;;;;;;;32.38;22.83;;;;;;;;;;6273884;22;20455;-76
2022/10/01 05:49:07;;;;;;;32.42;20.95;;;;;;;;;;6301419;22;20023;-77
2022/10/01 05:51:35;;;;;;;34.75;21.65;;;;;;;;;;6302543;22;20019;-76
2022/10/01 05:54:03;;;;;;;31.23;20.40;;;;;;;;;;6303346;22;20050;-76
2022/10/01 05:56:37;;;;;;;33.38;20.55;;;;;;;;;;6277181;22;20102;-76
2022/10/01 05:59:05;;;;;;;24.15;18.35;;;;;;;;;;6301589;22;20112;-76
2022/10/01 06:01:32;;;;;;;30.80;20.95;;;;;;;;;;6302086;22;20023;-76
2022/10/01 06:04:09;;;;;;;29.25;20.67;;;;;;;;;;6301952;22;20019;-76
2022/10/01 06:06:36;;;;;;;30.17;19.50;;;;;;;;;;6274921;22;20042;-76
2022/10/01 06:09:10;;;;;;;27.30;20.58;;;;;;;;;;6302147;22;20431;-76
2022/10/01 06:11:37;;;;;;;;;;;;;;;;;;6274592;22;20114;-77
2022/10/01 06:14:05;;;;;;;22.77;18.40;;;;;;;;;;6302440;22;20256;-76
2022/10/01 06:16:39;;;;;;;23.70;16.52;;;;;;;;;;6276002;22;20290;-77
2022/10/01 06:19:06;;;;;;;23.35;18.80;;;;;;;;;;6302314;22;20015;-77
2022/10/01 06:21:34;;;;;;;25.60;16.50;;;;;;;;;;6300220;22;20407;-76
2022/10/01 06:24:08;;;;;;;27.63;17.73;;;;;;;;;;6301754;22;20021;-76
2022/10/01 06:26:35;;;;;;;23.52;18.05;;;;;;;;;;6299576;22;20023;-77
2022/10/01 06:29:16;;;;;;;27.08;16.65;;;;;;;;;;6300651;22;20041;-77
2022/10/01 06:31:44;;;;;;;22.38;14.43;;;;;;;;;;6302443;22;20019;-77
2022/10/01 06:34:18;;;;;;;20.20;16.13;;;;;;;;;;6301861;22;20020;-77
2022/10/01 06:36:45;;;;;;;28.30;16.33;;;;;;;;;;6274409;22;20027;-77
2022/10/01 06:39:13;;;;;;;22.65;16.35;;;;;;;;;;6300818;22;20534;-77
2022/10/01 06:41:47;;;;;;;21.38;15.75;;;;;;;;;;6299879;22;20628;-77
2022/10/01 06:44:14;;;;;;;;;;;;;;;;;;6300711;22;20102;-77
2022/10/01 06:46:42;;;;;;;21.92;14.45;;;;;;;;;;6301468;22;19957;-77
2022/10/01 06:49:19;;;;;;;20.00;14.23;;;;;;;;;;6301703;22;20019;-77
2022/10/01 06:54:39;;;;;;;23.75;15.50;;;;;;;;;;6302346;22;20514;-77
2022/10/01 06:57:06;;;;;;;19.55;15.48;;;;;;;;;;6302222;22;20103;-77
2022/10/01 06:59:35;;;;;;;21.33;15.48;;;;;;;;;;6302603;22;20108;-77
2022/10/01 07:02:19;;;;;;;19.98;14.38;;;;;;;;;;6302602;22;20352;-76
2022/10/01 07:04:46;;;;;;;20.25;14.38;;;;;;;;;;6302916;22;20108;-76
2022/10/01 07:07:21;;;;;;;22.48;14.75;;;;;;;;;;6303269;22;20094;-76
2022/10/01 07:09:52;;;;;;;20.83;14.90;;;;;;;;;;6302367;22;20682;-77
2022/10/01 07:12:19;;;;;;;20.13;13.73;;;;;;;;;;6274447;22;20656;-77
2022/10/01 07:14:53;;;;;;;21.42;14.10;;;;;;;;;;6277031;22;20019;-77
2022/10/01 07:17:21;;;;;;;19.00;14.15;;;;;;;;;;6302142;22;20322;-77
2022/10/01 07:19:48;;;;;;;22.20;14.30;;;;;;;;;;6299362;22;20019;-77
2022/10/01 07:22:23;;;;;;;27.63;14.57;;;;;;;;;;6301915;22;20107;-77
2022/10/01 07:24:51;;;;;;;22.30;14.93;;;;;;;;;;6300924;22;20037;-77
2022/10/01 07:27:32;;;;;;;18.27;13.25;;;;;;;;;;6300548;22;20589;-77
2022/10/01 07:30:06;;;;;;;20.30;13.02;;;;;;;;;;6302308;22;20019;-76
2022/10/01 07:32:43;;;;;;;18.55;13.20;;;;;;;;;;6301310;22;20118;-77
2022/10/01 07:35:10;;;;;;;22.08;12.77;;;;;;;;;;6303260;22;20097;-77
2022/10/01 07:37:38;;;;;;;29.75;14.57;;;;;;;;;;6303181;22;20027;-78
2022/10/01 07:40:15;;;;;;;17.65;12.10;;;;;;;;;;6302865;22;20019;-78
2022/10/01 07:42:42;;;;;;;17.23;11.18;;;;;;;;;;6274238;22;20106;-77
2022/10/01 07:45:16;;;;;;;20.20;13.38;;;;;;;;;;6301630;22;20015;-77
2022/10/01 07:47:43;;;;;;;16.50;10.85;;;;;;;;;;6275734;22;20027;-77
2022/10/01 07:50:10;;;;;;;14.77;11.30;;;;;;;;;;6304197;22;20069;-78
2022/10/01 07:52:44;;;;;;;18.00;10.82;;;;;;;;;;6303209;22;20351;-77
2022/10/01 07:55:13;;;;;;;12.77;9.15;;;;;;;;;;6276577;22;20022;-78
2022/10/01 07:57:40;;;;;;;17.70;11.00;;;;;;;;;;6304477;22;20102;-77
2022/10/01 08:00:14;;;;;;;16.83;9.35;;;;;;;;;;6304121;22;20015;-78
2022/10/01 08:02:46;;;;;;;15.13;9.68;;;;;;;;;;6302040;22;20098;-77
2022/10/01 08:05:16;;;;;;;13.65;9.80;;;;;;;;;;6302995;22;20106;-78
2022/10/01 08:07:50;;;;;;;11.35;9.05;;;;;;;;;;6277833;22;20015;-77
2022/10/01 08:10:24;;;;;;;13.50;8.88;;;;;;;;;;6301760;22;20046;-78
2022/10/01 08:12:59;;;;;;;12.55;9.07;;;;;;;;;;6303837;22;20059;-77
2022/10/01 08:15:33;;;;;;;15.00;8.93;;;;;;;;;;6303074;22;22010;-77
2022/10/01 08:18:02;;;;;;;16.15;8.30;;;;;;;;;;6301108;22;20023;-77
2022/10/01 08:20:29;;;;;;;12.07;9.10;;;;;;;;;;6302704;22;20065;-77
2022/10/01 08:23:03;;;;;;;10.90;8.35;;;;;;;;;;6303600;22;20030;-77
2022/10/01 08:25:30;;;;;;;;;;;;;;;;;;6275298;22;20356;-78
2022/10/01 08:27:59;;;;;;;14.18;8.10;;;;;;;;;;6300708;22;20000;-77
2022/10/01 08:30:33;;;;;;;11.77;7.07;;;;;;;;;;6302851;22;20322;-78
2022/10/01 08:33:00;;;;;;;14.18;7.80;;;;;;;;;;6301200;22;20484;-77
2022/10/01 08:35:34;;;;;;;12.30;6.95;;;;;;;;;;6302018;22;20023;-77
2022/10/01 08:38:02;;;;;;;11.20;6.80;;;;;;;;;;6275647;22;20019;-78
2022/10/01 08:40:36;;;;;;;10.15;6.50;;;;;;;;;;6302696;22;20026;-78
2022/10/01 08:43:13;;;;;;;15.70;7.70;;;;;;;;;;6275220;22;20461;-77
2022/10/01 08:45:44;;;;;;;11.02;6.60;;;;;;;;;;6302046;22;20103;-77
2022/10/01 08:48:26;;;;;;;10.95;6.43;;;;;;;;;;6301195;22;20076;-77
2022/10/01 08:50:56;;;;;;;8.07;6.57;;;;;;;;;;6273918;22;20118;-77
2022/10/01 08:53:43;;;;;;;10.98;6.90;;;;;;;;;;6302538;22;20021;-77
2022/10/01 08:56:30;;;;;;;11.77;7.35;;;;;;;;;;6302773;22;20023;-77
2022/10/01 08:59:09;;;;;;;11.43;5.93;;;;;;;;;;6302262;22;20020;-78
2022/10/01 09:01:36;;;;;;;11.32;5.65;;;;;;;;;;6301468;22;20019;-78
2022/10/01 09:04:10;;;;;;;9.60;5.55;;;;;;;;;;6299658;22;20030;-77
2022/10/01 09:06:38;;;;;;;8.75;5.88;;;;;;;;;;6273232;22;20460;-78
2022/10/01 09:09:31;;;;;;;8.00;5.72;;;;;;;;;;6302719;22;20023;-78
2022/10/01 09:12:04;;;;;;;12.82;5.00;;;;;;;;;;6275146;22;20062;-78
2022/10/01 09:14:41;;;;;;;9.82;5.07;;;;;;;;;;6302623;22;20114;-78
2022/10/01 09:17:14;;;;;;;11.30;5.55;;;;;;;;;;6274098;22;20034;-78
2022/10/01 09:20:04;;;;;;;7.75;5.20;;;;;;;;;;6302736;22;20053;-78
2022/10/01 09:22:34;;;;;;;11.20;5.57;;;;;;;;;;6301272;22;20019;-78
2022/10/01 09:25:27;;;;;;;7.35;5.72;;;;;;;;;;6302737;22;20546;-77
2022/10/01 09:28:17;;;;;;;11.43;5.05;;;;;;;;;;6301443;22;20025;-77
2022/10/01 09:31:16;;;;;;;6.97;4.70;;;;;;;;;;6295730;22;20042;-77
2022/10/01 09:33:48;;;;;;;9.80;5.57;;;;;;;;;;6301990;22;20043;-77
2022/10/01 09:36:40;;;;;;;9.98;5.18;;;;;;;;;;6302300;22;20033;-77
2022/10/01 09:39:25;;;;;;;8.32;4.60;;;;;;;;;;6301401;22;20061;-77
2022/10/01 09:41:59;;;;;;;9.63;4.90;;;;;;;;;;6302126;22;20030;-77
2022/10/01 09:44:27;;;;;;;8.35;5.03;;;;;;;;;;6274483;22;20094;-78
2022/10/01 09:47:01;;;;;;;9.52;4.82;;;;;;;;;;6301798;22;20119;-77
2022/10/01 09:49:33;;;;;;;10.07;5.32;;;;;;;;;;6303224;22;20541;-78
2022/10/01 09:52:12;;;;;;;10.23;4.90;;;;;;;;;;6301522;22;20023;-77
2022/10/01 09:54:42;;;;;;;9.82;4.93;;;;;;;;;;6302889;22;20030;-77
2022/10/01 09:57:24;;;;;;;7.93;4.53;;;;;;;;;;6301909;22;20019;-78
2022/10/01 09:59:52;;;;;;;5.07;3.92;;;;;;;;;;6302514;22;20019;-78
2022/10/01 10:02:32;;;;;;;9.20;5.10;;;;;;;;;;6304007;22;20029;-78
2022/10/01 10:05:00;;;;;;;7.38;5.10;;;;;;;;;;6275541;22;20023;-78
2022/10/01 10:07:34;;;;;;;8.30;4.43;;;;;;;;;;6302442;22;20102;-77
2022/10/01 10:10:18;;;;;;;9.63;4.88;;;;;;;;;;6301518;22;20358;-78
2022/10/01 10:13:16;;;;;;;7.00;4.05;;;;;;;;;;6302239;22;20058;-77
2022/10/01 10:15:57;;;;;;;7.65;4.22;;;;;;;;;;6298843;22;20033;-77
2022/10/01 10:18:34;;;;;;;7.32;3.85;;;;;;;;;;6301132;22;20515;-78
2022/10/01 10:21:02;;;;;;;10.05;4.20;;;;;;;;;;6301186;22;20023;-78
2022/10/01 10:23:45;;;;;;;4.50;3.80;;;;;;;;;;6301041;22;20472;-78
2022/10/01 10:26:19;;;;;;;6.25;4.40;;;;;;;;;;6301638;22;20025;-78
2022/10/01 10:29:01;;;;;;;9.70;3.78;;;;;;;;;;6268575;22;20034;-77
2022/10/01 10:31:30;;;;;;;4.55;3.22;;;;;;;;;;6268711;22;20023;-77
2022/10/01 10:34:04;;;;;;;7.20;3.53;;;;;;;;;;6270064;22;20449;-78
2022/10/01 10:36:33;;;;;;;6.13;3.47;;;;;;;;;;6268145;22;20065;-78
2022/10/01 10:39:02;;;;;;;8.45;3.40;;;;;;;;;;6269802;22;20035;-78
2022/10/01 10:41:36;;;;;;;11.85;4.10;;;;;;;;;;6266639;22;20055;-78
2022/10/01 10:44:06;;;;;;;7.15;3.53;;;;;;;;;;6269418;22;20026;-78
2022/10/01 10:46:40;;;;;;;6.07;3.33;;;;;;;;;;6271018;22;20020;-77
2022/10/01 10:49:32;;;;;;;5.45;3.05;;;;;;;;;;6270967;22;20465;-78
2022/10/01 10:52:18;;;;;;;11.95;3.90;;;;;;;;;;6266167;22;20026;-78
2022/10/01 10:54:47;;;;;;;6.20;3.22;;;;;;;;;;6269585;22;20520;-78
2022/10/01 10:57:28;;;;;;;4.78;2.85;;;;;;;;;;6269505;22;20576;-78
2022/10/01 11:00:00;;;;;;;5.90;3.00;;;;;;;;;;6269794;22;20051;-77
2022/10/01 11:02:34;;;;;;;;;;;;;;;;;;6269163;22;20030;-77
2022/10/01 11:05:03;;;;;;;9.43;3.15;;;;;;;;;;6268198;22;20139;-78
2022/10/01 11:07:30;;;;;;;10.32;3.50;;;;;;;;;;6268594;22;20022;-78
2022/10/01 11:10:22;;;;;;;6.97;3.35;;;;;;;;;;6271345;22;20094;-77
2022/10/01 11:13:05;;;;;;;6.70;3.20;;;;;;;;;;6271004;22;20098;-77
2022/10/01 11:15:56;;;;;;;5.00;3.17;;;;;;;;;;6271243;22;20111;-78
2022/10/01 11:18:32;;;;;;;4.93;2.65;;;;;;;;;;6270375;22;20127;-78
2022/10/01 11:21:22;;;;;;;4.70;3.08;;;;;;;;;;6272521;22;20099;-77
2022/10/01 11:24:05;;;;;;;7.05;3.10;;;;;;;;;;6272450;22;20077;-78
2022/10/01 11:26:57;;;;;;;6.15;3.20;;;;;;;;;;6271168;22;20095;-78
2022/10/01 11:30:00;;;;;;;6.57;3.10;;;;;;;;;;6293699;22;20023;-77
2022/10/01 11:32:44;;;;;;;7.18;3.10;;;;;;;;;;6303574;22;20053;-77
2022/10/01 11:35:44;;;;;;;3.50;2.53;;;;;;;;;;6302650;22;20103;-77
2022/10/01 11:38:30;;;;;;;6.18;3.35;;;;;;;;;;6299457;22;20027;-78
2022/10/01 11:41:21;;;;;;;8.60;2.58;;;;;;;;;;6302678;22;20016;-77
2022/10/01 11:43:53;;;;;;;6.25;2.97;;;;;;;;;;6273349;22;20571;-77
2022/10/01 11:46:28;;;;;;;7.88;3.00;;;;;;;;;;6276820;22;20094;-78
2022/10/01 11:49:01;;;;;;;6.32;2.85;;;;;;;;;;6302340;22;20024;-78
2022/10/01 11:51:41;;;;;;;5.45;2.50;;;;;;;;;;6301489;22;20094;-78
2022/10/01 11:54:10;;;;;;;7.35;3.33;;;;;;;;;;6302337;22;20023;-77
2022/10/01 11:59:39;;;;;;;4.47;2.60;;;;;;;;;;6305049;22;20026;-78
2022/10/01 12:02:30;;;;;;;4.35;2.90;;;;;;;;;;6278483;22;20033;-77
2022/10/01 12:04:57;;;;;;;8.55;3.22;;;;;;;;;;6277597;22;20015;-78
2022/10/01 12:07:31;;;;;;;6.10;2.40;;;;;;;;;;6301173;22;20020;-78
2022/10/01 12:10:17;;;;;;;8.30;2.63;;;;;;;;;;6303733;22;20165;-77
2022/10/01 12:12:56;;;;;;;11.85;2.80;;;;;;;;;;6301737;22;20023;-77
2022/10/01 12:15:28;;;;;;;4.18;2.75;;;;;;;;;;6302403;22;20097;-78
2022/10/01 12:18:07;;;;;;;10.23;2.70;;;;;;;;;;6302909;22;20024;-77
2022/10/01 12:20:37;;;;;;;5.88;3.15;;;;;;;;;;6301112;22;20098;-77
2022/10/01 12:23:16;;;;;;;7.10;2.80;;;;;;;;;;6302130;22;20069;-77
2022/10/01 12:26:03;;;;;;;5.68;3.08;;;;;;;;;;6303965;22;20094;-78
2022/10/01 12:28:56;;;;;;;4.88;2.38;;;;;;;;;;6300896;22;20019;-77
2022/10/01 12:31:40;;;;;;;6.45;2.72;;;;;;;;;;6276428;22;20023;-77
2022/10/01 12:34:21;;;;;;;6.25;2.67;;;;;;;;;;6301934;22;20391;-77
2022/10/01 12:36:48;;;;;;;3.78;2.53;;;;;;;;;;6272893;22;20110;-77
2022/10/01 12:39:25;;;;;;;7.05;2.78;;;;;;;;;;6303250;22;20102;-78
2022/10/01 12:41:58;;;;;;;9.73;2.88;;;;;;;;;;6300211;22;20023;-78
2022/10/01 12:44:52;;;;;;;5.93;2.40;;;;;;;;;;6301874;22;20138;-77
2022/10/01 12:47:27;;;;;;;4.70;2.80;;;;;;;;;;6285741;22;20470;-78
2022/10/01 12:50:19;;;;;;;7.32;2.58;;;;;;;;;;6301969;22;20050;-78
2022/10/01 12:52:46;;;;;;;6.30;2.45;;;;;;;;;;6275409;22;20061;-77
2022/10/01 12:55:20;;;;;;;3.92;2.15;;;;;;;;;;6301760;22;20025;-78
2022/10/01 12:57:47;;;;;;;7.60;2.80;;;;;;;;;;6272670;22;20115;-77
2022/10/01 13:00:23;;;;;;;4.85;2.40;;;;;;;;;;6276960;22;20064;-78
2022/10/01 13:02:51;;;;;;;6.88;2.35;;;;;;;;;;6301562;22;20119;-77
2022/10/01 13:05:21;;;;;;;;;;;;;;;;;;6301444;22;20841;-77
2022/10/01 13:08:00;;;;;;;3.72;2.20;;;;;;;;;;6275155;22;20002;-78
2022/10/01 13:10:30;;;;;;;5.07;2.70;;;;;;;;;;6301363;22;20037;-77
2022/10/01 13:13:07;;;;;;;7.68;2.60;;;;;;;;;;6301103;22;20460;-77
2022/10/01 13:15:36;;;;;;;7.75;2.63;;;;;;;;;;6301923;22;20106;-78
2022/10/01 13:18:10;;;;;;;5.40;2.30;;;;;;;;;;6300099;22;20030;-77
2022/10/01 13:20:42;;;;;;;6.15;2.28;;;;;;;;;;6301418;22;20045;-77
2022/10/01 13:23:22;;;;;;;4.72;2.60;;;;;;;;;;6301422;22;20110;-77
2022/10/01 13:26:05;;;;;;;4.45;2.17;;;;;;;;;;6301600;22;20019;-78
2022/10/01 13:28:48;;;;;;;4.60;2.30;;;;;;;;;;6299339;22;20402;-77
2022/10/01 13:31:19;;;;;;;7.68;2.75;;;;;;;;;;6274509;22;20072;-77
2022/10/01 13:33:54;;;;;;;5.57;2.53;;;;;;;;;;6274861;22;20073;-77
2022/10/01 13:36:29;;;;;;;5.22;2.30;;;;;;;;;;6303285;22;20043;-77
2022/10/01 13:39:04;;;;;;;3.60;2.30;;;;;;;;;;6302009;22;20015;-78
2022/10/01 13:41:34;;;;;;;4.25;2.20;;;;;;;;;;6299570;22;20111;-77
2022/10/01 13:44:09;;;;;;;5.65;2.50;;;;;;;;;;6301541;22;20093;-77
2022/10/01 13:46:49;;;;;;;8.70;2.83;;;;;;;;;;6302723;22;20023;-77
2022/10/01 13:49:24;;;;;;;4.35;2.35;;;;;;;;;;6301030;22;20061;-78
2022/10/01 13:51:52;;;;;;;3.97;2.13;;;;;;;;;;6300952;22;20023;-77
2022/10/01 13:54:29;;;;;;;7.72;2.72;;;;;;;;;;6301480;22;20070;-76
2022/10/01 13:57:06;;;;;;;1.52;1.08;;;;;;;;;;6298763;22;20336;-77
2022/10/01 13:59:42;;;;;;;3.38;1.40;;;;;;;;;;6302515;22;20050;-77
2022/10/01 14:02:35;;;;;;;3.33;1.40;;;;;;;;;;6276052;22;20027;-78
2022/10/01 14:05:21;;;;;;;4.43;1.40;;;;;;;;;;6302344;22;20103;-77
2022/10/01 14:07:53;;;;;;;6.22;1.60;;;;;;;;;;6302419;22;20058;-77
2022/10/01 14:10:32;;;;;;;2.15;1.55;;;;;;;;;;6301046;22;20380;-77
2022/10/01 14:15:58;;;;;;;4.97;2.20;;;;;;;;;;6296875;22;20102;-77
2022/10/01 14:18:29;;;;;;;4.53;2.50;;;;;;;;;;6297289;22;20351;-77
2022/10/01 14:21:03;;;;;;;4.50;2.08;;;;;;;;;;6300497;22;20023;-77
2022/10/01 14:23:38;;;;;;;3.42;2.08;;;;;;;;;;6293696;22;20014;-77
2022/10/01 14:26:16;;;;;;;5.88;2.70;;;;;;;;;;6294982;22;20126;-77
2022/10/01 14:29:15;;;;;;;5.25;2.47;;;;;;;;;;6293148;22;20023;-77
2022/10/01 14:31:58;;;;;;;4.18;2.60;;;;;;;;;;6299271;22;20464;-77
2022/10/01 14:34:44;;;;;;;4.93;2.50;;;;;;;;;;6296587;22;20058;-77
2022/10/01 14:37:19;;;;;;;4.25;2.35;;;;;;;;;;6298453;22;20030;-77
2022/10/01 14:39:46;;;;;;;5.10;2.42;;;;;;;;;;6271161;22;20197;-77
2022/10/01 14:42:15;;;;;;;3.50;2.28;;;;;;;;;;6297320;22;20071;-78
2022/10/01 14:44:49;;;;;;;5.13;2.38;;;;;;;;;;6271879;22;20027;-77
2022/10/01 14:47:19;;;;;;;3.78;2.50;;;;;;;;;;6297456;22;20029;-76
2022/10/01 14:49:46;;;;;;;40.55;19.02;;;;;;;;;;6271572;22;20436;-77
2022/10/01 14:52:20;;;;;;;6.13;3.25;;;;;;;;;;6298892;22;20015;-77
2022/10/01 14:54:47;;;;;;;4.90;3.42;;;;;;;;;;6298708;22;20034;-77
2022/10/01 14:57:24;;;;;;;3.80;2.88;;;;;;;;;;6297098;22;20029;-77
2022/10/01 14:59:52;;;;;;;6.18;3.55;;;;;;;;;;6300111;22;20022;-77
2022/10/01 15:02:20;;;;;;;11.90;4.72;;;;;;;;;;6296826;22;20035;-77
2022/10/01 15:04:55;;;;;;;12.68;9.27;;;;;;;;;;6299077;22;20524;-78
2022/10/01 15:07:35;;;;;;;11.20;7.50;;;;;;;;;;6271807;22;20058;-76
2022/10/01 15:10:07;;;;;;;7.38;5.95;;;;;;;;;;6297701;22;20023;-78
2022/10/01 15:12:40;;;;;;;5.65;3.70;;;;;;;;;;6296424;22;20429;-77
2022/10/01 15:15:07;;;;;;;;;;;;;;;;;;6300425;22;20034;-77
2022/10/01 15:17:41;;;;;;;4.63;3.38;;;;;;;;;;6270854;22;19919;-77
2022/10/01 15:20:11;;;;;;;4.07;3.03;;;;;;;;;;6298454;22;20098;-77
2022/10/01 15:22:38;;;;;;;4.50;3.10;;;;;;;;;;6295455;22;20042;-77